createdAt,value
2022-10-11T00:01:27.559Z,6.10
2022-10-11T00:03:54.422Z,6.00
2022-10-11T00:06:21.282Z,6.00
2022-10-11T00:08:48.111Z,5.90
2022-10-11T00:11:15.002Z,5.90
2022-10-11T00:13:41.874Z,5.90
2022-10-11T00:16:10.591Z,5.90
2022-10-11T00:18:37.579Z,5.90
2022-10-11T00:21:06.066Z,5.90
2022-10-11T00:23:33.282Z,5.90
2022-10-11T00:26:00.837Z,5.80
2022-10-11T00:28:27.782Z,5.80
2022-10-11T00:30:54.769Z,5.80
2022-10-11T00:33:21.738Z,5.80
2022-10-11T00:35:48.908Z,5.80
2022-10-11T00:38:15.908Z,5.70
2022-10-11T00:40:43.070Z,5.80
2022-10-11T00:43:17.594Z,5.80
2022-10-11T00:45:53.343Z,5.70
2022-10-11T00:48:30.095Z,5.70
2022-10-11T00:50:57.476Z,5.70
2022-10-11T00:53:24.354Z,5.60
2022-10-11T00:55:53.906Z,5.60
2022-10-11T00:58:20.860Z,5.50
2022-10-11T01:00:48.162Z,5.50
2022-10-11T01:03:16.178Z,5.50
2022-10-11T01:05:43.133Z,5.50
2022-10-11T01:08:09.976Z,5.40
2022-10-11T01:10:36.832Z,5.40
2022-10-11T01:13:26.697Z,5.40
2022-10-11T01:16:11.002Z,5.30
2022-10-11T01:18:40.911Z,5.30
2022-10-11T01:21:19.682Z,5.30
2022-10-11T01:24:12.561Z,5.30
2022-10-11T01:26:55.763Z,5.20
2022-10-11T01:29:31.771Z,5.30
2022-10-11T01:32:26.859Z,5.30
2022-10-11T01:35:00.556Z,5.30
2022-10-11T01:37:33.022Z,5.20
2022-10-11T01:40:03.737Z,5.20
2022-10-11T01:42:30.735Z,5.20
2022-10-11T01:44:57.949Z,5.20
2022-10-11T01:47:24.943Z,5.10
2022-10-11T01:49:59.713Z,5.10
2022-10-11T01:52:32.172Z,5.20
2022-10-11T01:55:20.385Z,5.10
2022-10-11T01:57:56.278Z,5.10
2022-10-11T02:00:24.651Z,5.10
2022-10-11T02:02:56.165Z,5.10
2022-10-11T02:05:51.907Z,5.10
2022-10-11T02:08:26.818Z,5.00
2022-10-11T02:11:01.469Z,5.00
2022-10-11T02:13:32.011Z,4.90
2022-10-11T02:15:59.168Z,4.90
2022-10-11T02:18:28.811Z,4.90
2022-10-11T02:20:55.641Z,4.90
2022-10-11T02:23:34.759Z,4.90
2022-10-11T02:26:02.873Z,4.90
2022-10-11T02:28:31.546Z,4.90
2022-10-11T02:30:58.983Z,4.80
2022-10-11T02:33:32.151Z,4.80
2022-10-11T02:36:03.311Z,4.80
2022-10-11T02:38:37.447Z,4.70
2022-10-11T02:41:20.049Z,4.80
2022-10-11T02:43:51.483Z,4.70
2022-10-11T02:46:18.356Z,4.70
2022-10-11T02:48:45.196Z,4.70
2022-10-11T02:51:13.400Z,4.60
2022-10-11T02:53:40.270Z,4.60
2022-10-11T02:56:07.957Z,4.60
2022-10-11T02:58:35.126Z,4.50
2022-10-11T03:01:01.995Z,4.50
2022-10-11T03:03:28.904Z,4.50
2022-10-11T03:06:00.590Z,4.50
2022-10-11T03:08:27.531Z,4.40
2022-10-11T03:10:54.714Z,4.50
2022-10-11T03:13:21.641Z,4.50
2022-10-11T03:16:00.698Z,4.40
2022-10-11T03:18:29.947Z,4.40
2022-10-11T03:20:56.872Z,4.40
2022-10-11T03:23:23.793Z,4.50
2022-10-11T03:25:52.205Z,4.50
2022-10-11T03:28:19.766Z,4.50
2022-10-11T03:30:49.982Z,4.40
2022-10-11T03:33:17.306Z,4.40
2022-10-11T03:35:45.701Z,4.40
2022-10-11T03:38:17.640Z,4.40
2022-10-11T03:40:44.551Z,4.40
2022-10-11T03:43:11.690Z,4.40
2022-10-11T03:45:38.621Z,4.40
2022-10-11T03:48:05.745Z,4.30
2022-10-11T03:50:32.719Z,4.30
2022-10-11T03:52:59.548Z,4.30
2022-10-11T03:55:26.558Z,4.30
2022-10-11T03:57:53.395Z,4.30
2022-10-11T04:00:20.307Z,4.20
2022-10-11T04:02:47.139Z,4.20
2022-10-11T04:05:14.140Z,4.20
2022-10-11T04:07:41.411Z,4.20
2022-10-11T04:10:08.716Z,4.20
2022-10-11T04:12:36.770Z,4.20
2022-10-11T04:15:04.054Z,4.20
2022-10-11T04:17:30.943Z,4.20
2022-10-11T04:19:57.914Z,4.20
2022-10-11T04:22:24.903Z,4.20
2022-10-11T04:24:52.214Z,4.20
2022-10-11T04:27:19.103Z,4.10
2022-10-11T04:29:45.922Z,4.00
2022-10-11T04:32:12.777Z,4.00
2022-10-11T04:34:39.674Z,4.00
2022-10-11T04:37:06.519Z,3.90
2022-10-11T04:39:33.379Z,3.90
2022-10-11T04:42:00.314Z,3.90
2022-10-11T04:44:27.212Z,4.00
2022-10-11T04:46:54.296Z,3.90
2022-10-11T04:49:21.322Z,3.90
2022-10-11T04:51:48.166Z,3.80
2022-10-11T04:54:15.133Z,3.80
2022-10-11T04:56:41.963Z,3.90
2022-10-11T04:59:08.835Z,3.80
2022-10-11T05:01:35.740Z,3.80
2022-10-11T05:04:02.797Z,3.80
2022-10-11T05:06:29.717Z,3.80
2022-10-11T05:08:56.674Z,3.80
2022-10-11T05:11:23.542Z,3.80
2022-10-11T05:13:50.432Z,3.90
2022-10-11T05:16:17.902Z,3.80
2022-10-11T05:18:45.210Z,3.80
2022-10-11T05:21:17.466Z,3.80
2022-10-11T05:23:44.356Z,3.80
2022-10-11T05:26:11.212Z,3.80
2022-10-11T05:28:38.151Z,3.80
2022-10-11T05:31:05.267Z,3.80
2022-10-11T05:33:32.306Z,3.80
2022-10-11T05:35:59.262Z,3.80
2022-10-11T05:38:26.344Z,3.80
2022-10-11T05:40:53.187Z,3.80
2022-10-11T05:43:20.077Z,3.80
2022-10-11T05:45:46.922Z,3.80
2022-10-11T05:48:13.935Z,3.70
2022-10-11T05:50:40.808Z,3.80
2022-10-11T05:53:07.797Z,3.80
2022-10-11T05:55:38.606Z,3.80
2022-10-11T05:58:05.687Z,3.80
2022-10-11T06:00:32.518Z,3.80
2022-10-11T06:02:59.398Z,3.70
2022-10-11T06:05:26.303Z,3.70
2022-10-11T06:07:53.294Z,3.80
2022-10-11T06:10:20.155Z,3.80
2022-10-11T06:12:47.033Z,3.70
2022-10-11T06:15:14.814Z,3.70
2022-10-11T06:17:41.933Z,3.70
2022-10-11T06:20:09.955Z,3.70
2022-10-11T06:22:36.930Z,3.70
2022-10-11T06:25:04.015Z,3.70
2022-10-11T06:27:30.890Z,3.70
2022-10-11T06:29:57.731Z,3.70
2022-10-11T06:32:24.761Z,3.70
2022-10-11T06:34:51.653Z,3.80
2022-10-11T06:37:18.707Z,3.80
2022-10-11T06:39:45.647Z,3.70
2022-10-11T06:42:12.524Z,3.70
2022-10-11T06:44:39.659Z,3.80
2022-10-11T06:47:06.722Z,3.80
2022-10-11T06:49:34.164Z,3.90
2022-10-11T06:52:01.234Z,3.90
2022-10-11T06:54:28.124Z,3.90
2022-10-11T06:56:54.972Z,4.00
2022-10-11T06:59:22.003Z,4.00
2022-10-11T07:01:48.873Z,4.10
2022-10-11T07:04:15.826Z,4.10
2022-10-11T07:06:42.697Z,4.10
2022-10-11T07:09:09.954Z,4.20
2022-10-11T07:11:36.855Z,4.30
2022-10-11T07:14:07.565Z,4.30
2022-10-11T07:16:37.476Z,4.40
2022-10-11T07:19:05.413Z,4.50
2022-10-11T07:21:33.128Z,4.50
2022-10-11T07:24:00.355Z,4.60
2022-10-11T07:26:28.012Z,4.60
2022-10-11T07:28:55.004Z,4.70
2022-10-11T07:31:23.379Z,4.80
2022-10-11T07:33:50.277Z,4.80
2022-10-11T07:36:17.347Z,4.80
2022-10-11T07:38:45.658Z,4.90
2022-10-11T07:41:12.947Z,5.10
2022-10-11T07:43:40.083Z,5.20
2022-10-11T07:46:07.498Z,5.20
2022-10-11T07:48:35.386Z,5.30
2022-10-11T07:51:10.658Z,5.40
2022-10-11T07:53:41.802Z,5.50
2022-10-11T07:56:09.499Z,5.60
2022-10-11T07:58:36.487Z,5.70
2022-10-11T08:01:03.594Z,5.70
2022-10-11T08:03:30.573Z,5.80
2022-10-11T08:06:17.558Z,5.90
2022-10-11T08:08:44.687Z,6.00
2022-10-11T08:11:19.047Z,6.10
2022-10-11T08:13:45.959Z,6.20
2022-10-11T08:16:13.275Z,6.20
2022-10-11T08:18:40.123Z,6.30
2022-10-11T08:21:10.777Z,6.40
2022-10-11T08:23:37.876Z,6.50
2022-10-11T08:26:05.080Z,6.60
2022-10-11T08:28:32.502Z,6.70
2022-10-11T08:30:59.407Z,6.80
2022-10-11T08:33:26.533Z,6.90
2022-10-11T08:35:53.674Z,7.00
2022-10-11T08:38:20.892Z,7.00
2022-10-11T08:40:48.801Z,7.10
2022-10-11T08:43:24.907Z,7.20
2022-10-11T08:45:53.658Z,7.30
2022-10-11T08:48:25.424Z,7.30
2022-10-11T08:50:52.878Z,7.40
2022-10-11T08:53:24.188Z,7.50
2022-10-11T08:55:51.834Z,7.60
2022-10-11T08:58:24.525Z,7.70
2022-10-11T09:00:53.890Z,7.80
2022-10-11T09:03:32.777Z,7.80
2022-10-11T09:06:11.823Z,7.90
2022-10-11T09:08:49.079Z,8.00
2022-10-11T09:11:37.859Z,8.10
2022-10-11T09:14:26.166Z,8.10
2022-10-11T09:16:59.983Z,8.30
2022-10-11T09:19:46.867Z,8.40
2022-10-11T09:22:44.470Z,8.60
2022-10-11T09:25:30.802Z,8.90
2022-10-11T09:28:30.847Z,9.00
2022-10-11T09:30:58.670Z,9.20
2022-10-11T09:33:39.031Z,9.20
2022-10-11T09:36:33.165Z,9.20
2022-10-11T09:39:07.935Z,9.30
2022-10-11T09:42:00.374Z,9.40
2022-10-11T09:44:33.641Z,9.50
2022-10-11T09:47:00.561Z,9.60
2022-10-11T09:50:03.943Z,9.60
2022-10-11T09:52:30.834Z,9.70
2022-10-11T09:55:00.057Z,9.70
2022-10-11T09:57:31.601Z,9.80
2022-10-11T10:00:01.360Z,9.80
2022-10-11T10:02:45.073Z,9.90
2022-10-11T10:05:14.859Z,10.10
2022-10-11T10:08:26.991Z,10.10
2022-10-11T10:10:59.375Z,10.10
2022-10-11T10:13:46.651Z,10.10
2022-10-11T10:16:32.280Z,10.20
2022-10-11T10:19:06.647Z,10.40
2022-10-11T10:21:38.078Z,10.50
2022-10-11T10:24:09.923Z,10.60
2022-10-11T10:26:36.849Z,10.60
2022-10-11T10:29:24.015Z,10.70
2022-10-11T10:32:13.354Z,10.60
2022-10-11T10:34:56.896Z,10.70
2022-10-11T10:37:28.294Z,10.70
2022-10-11T10:40:24.298Z,10.70
2022-10-11T10:42:51.282Z,10.80
2022-10-11T10:45:21.393Z,11.00
2022-10-11T10:48:07.928Z,11.10
2022-10-11T10:50:54.822Z,11.20
2022-10-11T10:53:32.141Z,11.30
2022-10-11T10:56:22.203Z,11.40
2022-10-11T10:59:14.467Z,11.40
2022-10-11T11:01:56.231Z,11.50
2022-10-11T11:04:31.016Z,11.60
2022-10-11T11:07:10.184Z,11.70
2022-10-11T11:09:41.074Z,11.70
2022-10-11T11:12:51.107Z,11.70
2022-10-11T11:15:38.299Z,11.80
2022-10-11T11:18:37.084Z,11.90
2022-10-11T11:21:19.201Z,11.90
2022-10-11T11:24:07.950Z,12.00
2022-10-11T11:26:46.998Z,12.10
2022-10-11T11:29:27.333Z,12.10
2022-10-11T11:31:54.248Z,12.10
2022-10-11T11:34:29.529Z,12.00
2022-10-11T11:37:05.648Z,12.00
2022-10-11T11:39:53.135Z,11.90
2022-10-11T11:42:41.891Z,11.90
2022-10-11T11:45:26.511Z,11.90
2022-10-11T11:48:04.869Z,11.90
2022-10-11T11:50:40.322Z,11.90
2022-10-11T11:53:13.582Z,12.00
2022-10-11T11:55:53.415Z,12.10
2022-10-11T11:58:23.310Z,12.00
2022-10-11T12:01:30.960Z,11.90
2022-10-11T12:04:02.465Z,11.80
2022-10-11T12:06:31.396Z,11.80
2022-10-11T12:09:05.140Z,11.70
2022-10-11T12:11:37.930Z,11.60
2022-10-11T12:14:35.565Z,11.60
2022-10-11T12:17:20.953Z,11.60
2022-10-11T12:20:14.876Z,11.50
2022-10-11T12:22:54.136Z,11.50
2022-10-11T12:25:40.322Z,11.50
2022-10-11T12:28:41.944Z,11.50
2022-10-11T12:31:23.645Z,11.60
2022-10-11T12:33:53.307Z,11.70
2022-10-11T12:36:32.100Z,11.70
2022-10-11T12:39:20.772Z,11.70
2022-10-11T12:41:47.827Z,11.70
2022-10-11T12:44:23.647Z,11.70
2022-10-11T12:46:50.539Z,11.60
2022-10-11T12:49:38.246Z,11.60
2022-10-11T12:52:06.992Z,11.60
2022-10-11T12:54:52.346Z,11.60
2022-10-11T12:57:31.249Z,11.70
2022-10-11T13:00:29.778Z,11.70
2022-10-11T13:03:01.430Z,11.70
2022-10-11T13:05:44.800Z,11.80
2022-10-11T13:08:16.809Z,11.90
2022-10-11T13:10:45.778Z,12.00
2022-10-11T13:13:38.920Z,12.10
2022-10-11T13:16:12.882Z,12.30
2022-10-11T13:18:43.085Z,12.40
2022-10-11T13:21:29.883Z,12.50
2022-10-11T13:24:06.771Z,12.70
2022-10-11T13:26:33.718Z,12.80
2022-10-11T13:29:01.040Z,12.70
2022-10-11T13:31:28.154Z,12.60
2022-10-11T13:33:55.821Z,12.60
2022-10-11T13:36:24.432Z,12.70
2022-10-11T13:38:56.813Z,12.80
2022-10-11T13:41:24.980Z,12.90
2022-10-11T13:43:52.140Z,13.00
2022-10-11T13:46:23.519Z,13.10
2022-10-11T13:49:03.894Z,13.10
2022-10-11T13:51:37.302Z,13.30
2022-10-11T13:54:13.125Z,13.40
2022-10-11T13:56:43.896Z,13.50
2022-10-11T13:59:24.103Z,13.40
2022-10-11T14:01:54.639Z,13.40
2022-10-11T14:04:23.273Z,13.40
2022-10-11T14:06:58.341Z,13.40
2022-10-11T14:09:25.324Z,13.40
2022-10-11T14:11:52.269Z,13.50
2022-10-11T14:14:39.404Z,13.50
2022-10-11T14:17:11.406Z,13.50
2022-10-11T14:19:38.537Z,13.50
2022-10-11T14:22:06.036Z,13.50
2022-10-11T14:24:32.897Z,13.50
2022-10-11T14:27:00.070Z,13.50
2022-10-11T14:29:32.396Z,13.50
2022-10-11T14:32:03.542Z,13.40
2022-10-11T14:34:30.531Z,13.30
2022-10-11T14:36:57.383Z,13.50
2022-10-11T14:39:25.253Z,13.50
2022-10-11T14:41:52.303Z,13.50
2022-10-11T14:44:19.531Z,13.50
2022-10-11T14:46:46.903Z,13.60
2022-10-11T14:49:19.550Z,13.60
2022-10-11T14:51:47.630Z,13.60
2022-10-11T14:54:14.904Z,13.50
2022-10-11T14:56:41.890Z,13.60
2022-10-11T14:59:12.866Z,13.70
2022-10-11T15:01:39.824Z,13.70
2022-10-11T15:04:06.690Z,13.70
2022-10-11T15:06:36.161Z,13.60
2022-10-11T15:09:03.908Z,13.50
2022-10-11T15:11:30.838Z,13.50
2022-10-11T15:13:57.904Z,13.40
2022-10-11T15:16:26.879Z,13.40
2022-10-11T15:18:53.750Z,13.40
2022-10-11T15:21:22.522Z,13.30
2022-10-11T15:23:49.738Z,13.30
2022-10-11T15:26:18.402Z,13.20
2022-10-11T15:28:45.805Z,13.20
2022-10-11T15:31:13.014Z,13.30
2022-10-11T15:33:40.001Z,13.20
2022-10-11T15:36:08.568Z,13.20
2022-10-11T15:38:35.791Z,13.10
2022-10-11T15:41:02.834Z,13.10
2022-10-11T15:43:29.725Z,13.20
2022-10-11T15:45:57.155Z,13.10
2022-10-11T15:48:26.489Z,13.10
2022-10-11T15:50:53.938Z,13.10
2022-10-11T15:53:26.317Z,12.90
2022-10-11T15:55:54.504Z,12.90
2022-10-11T15:58:25.287Z,12.80
2022-10-11T16:00:54.255Z,12.80
2022-10-11T16:03:22.618Z,12.70
2022-10-11T16:05:49.646Z,12.70
2022-10-11T16:08:16.625Z,12.70
2022-10-11T16:10:43.622Z,12.60
2022-10-11T16:13:10.667Z,12.60
2022-10-11T16:15:38.901Z,12.60
2022-10-11T16:18:06.838Z,12.50
2022-10-11T16:20:33.797Z,12.50
2022-10-11T16:23:00.744Z,12.40
2022-10-11T16:25:27.632Z,12.40
2022-10-11T16:27:54.610Z,12.30
2022-10-11T16:30:21.488Z,12.30
2022-10-11T16:32:48.491Z,12.30
2022-10-11T16:35:15.699Z,12.20
2022-10-11T16:37:42.722Z,12.10
2022-10-11T16:40:10.466Z,12.10
2022-10-11T16:42:40.510Z,12.00
2022-10-11T16:45:08.418Z,12.00
2022-10-11T16:47:35.353Z,11.90
2022-10-11T16:50:02.328Z,11.80
2022-10-11T16:52:29.282Z,11.80
2022-10-11T16:54:56.143Z,11.80
2022-10-11T16:57:23.149Z,11.70
2022-10-11T16:59:50.101Z,11.70
2022-10-11T17:02:31.323Z,11.70
2022-10-11T17:04:59.404Z,11.60
2022-10-11T17:07:26.362Z,11.50
2022-10-11T17:09:53.417Z,11.50
2022-10-11T17:12:21.653Z,11.50
2022-10-11T17:14:48.730Z,11.40
2022-10-11T17:17:16.063Z,11.30
2022-10-11T17:19:45.320Z,11.20
2022-10-11T17:22:13.576Z,11.10
2022-10-11T17:24:40.541Z,11.00
2022-10-11T17:27:07.409Z,10.90
2022-10-11T17:29:34.325Z,10.80
2022-10-11T17:32:01.468Z,10.70
2022-10-11T17:34:28.432Z,10.60
2022-10-11T17:36:55.482Z,10.50
2022-10-11T17:39:22.866Z,10.50
2022-10-11T17:41:50.027Z,10.40
2022-10-11T17:44:19.989Z,10.30
2022-10-11T17:46:47.054Z,10.20
2022-10-11T17:49:14.026Z,10.10
2022-10-11T17:51:41.102Z,10.10
2022-10-11T17:54:12.437Z,10.00
2022-10-11T17:56:40.445Z,9.90
2022-10-11T17:59:07.823Z,9.80
2022-10-11T18:01:34.870Z,9.80
2022-10-11T18:04:03.376Z,9.70
2022-10-11T18:06:32.207Z,9.70
2022-10-11T18:09:02.485Z,9.60
2022-10-11T18:11:29.657Z,9.60
2022-10-11T18:13:56.636Z,9.50
2022-10-11T18:16:24.914Z,9.40
2022-10-11T18:18:51.880Z,9.40
2022-10-11T18:21:19.543Z,9.30
2022-10-11T18:23:46.519Z,9.30
2022-10-11T18:26:18.026Z,9.20
2022-10-11T18:28:45.477Z,9.10
2022-10-11T18:31:20.610Z,9.00
2022-10-11T18:33:47.681Z,9.00
2022-10-11T18:36:15.640Z,9.00
2022-10-11T18:38:46.360Z,8.90
2022-10-11T18:41:15.651Z,8.80
2022-10-11T18:43:42.742Z,8.80
2022-10-11T18:46:13.958Z,8.70
2022-10-11T18:48:42.132Z,8.60
2022-10-11T18:51:14.518Z,8.60
2022-10-11T18:53:41.616Z,8.50
2022-10-11T18:56:09.675Z,8.50
2022-10-11T18:58:37.281Z,8.40
2022-10-11T19:01:08.631Z,8.40
2022-10-11T19:03:35.741Z,8.30
2022-10-11T19:06:07.962Z,8.30
2022-10-11T19:08:35.181Z,8.30
2022-10-11T19:11:06.626Z,8.30
2022-10-11T19:13:34.256Z,8.20
2022-10-11T19:16:08.517Z,8.20
2022-10-11T19:18:38.354Z,8.10
2022-10-11T19:21:10.575Z,8.10
2022-10-11T19:23:42.382Z,8.00
2022-10-11T19:26:33.581Z,8.00
2022-10-11T19:29:06.334Z,8.00
2022-10-11T19:31:33.786Z,7.90
2022-10-11T19:34:01.166Z,7.90
2022-10-11T19:36:31.418Z,7.80
2022-10-11T19:39:01.018Z,7.80
2022-10-11T19:41:28.006Z,7.80
2022-10-11T19:43:55.105Z,7.70
2022-10-11T19:49:09.230Z,7.60
2022-10-11T19:51:37.655Z,7.60
2022-10-11T19:54:06.704Z,7.60
2022-10-11T19:56:33.795Z,7.50
2022-10-11T19:59:00.806Z,7.50
2022-10-11T20:01:29.477Z,7.40
2022-10-11T20:03:58.907Z,7.40
2022-10-11T20:06:26.824Z,7.40
2022-10-11T20:09:16.546Z,7.40
2022-10-11T20:11:40.749Z,7.40
2022-10-11T20:14:07.665Z,7.30
2022-10-11T20:16:34.701Z,7.30
2022-10-11T20:19:02.314Z,7.30
2022-10-11T20:21:30.003Z,7.30
2022-10-11T20:24:02.302Z,7.20
2022-10-11T20:26:29.506Z,7.20
2022-10-11T20:28:56.901Z,7.20
2022-10-11T20:31:26.038Z,7.10
2022-10-11T20:33:55.418Z,7.10
2022-10-11T20:36:22.784Z,7.00
2022-10-11T20:38:49.935Z,7.00
2022-10-11T20:41:18.801Z,7.10
2022-10-11T20:43:46.349Z,7.00
2022-10-11T20:46:17.594Z,7.00
2022-10-11T20:49:00.382Z,7.00
2022-10-11T20:51:28.930Z,6.90
2022-10-11T20:53:56.531Z,6.90
2022-10-11T20:56:23.400Z,6.90
2022-10-11T20:58:52.006Z,6.80
2022-10-11T21:01:23.479Z,6.80
2022-10-11T21:03:50.539Z,6.80
2022-10-11T21:06:17.429Z,6.80
2022-10-11T21:08:44.448Z,6.70
2022-10-11T21:11:11.654Z,6.70
2022-10-11T21:13:38.563Z,6.70
2022-10-11T21:16:11.429Z,6.70
2022-10-11T21:18:38.418Z,6.60
2022-10-11T21:21:14.537Z,6.60
2022-10-11T21:23:41.807Z,6.60
2022-10-11T21:26:10.748Z,6.60
2022-10-11T21:28:37.985Z,6.60
2022-10-11T21:31:05.476Z,6.50
2022-10-11T21:33:32.775Z,6.50
2022-10-11T21:36:01.053Z,6.50
2022-10-11T21:38:27.965Z,6.50
2022-10-11T21:40:54.840Z,6.50
2022-10-11T21:43:21.747Z,6.40
2022-10-11T21:45:48.631Z,6.40
2022-10-11T21:48:15.576Z,6.30
2022-10-11T21:50:42.580Z,6.30
2022-10-11T21:53:09.555Z,6.30
2022-10-11T21:55:36.479Z,6.30
2022-10-11T21:58:03.451Z,6.30
2022-10-11T22:00:30.294Z,6.30
2022-10-11T22:02:57.215Z,6.30
2022-10-11T22:05:24.380Z,6.20
2022-10-11T22:07:51.407Z,6.20
2022-10-11T22:10:18.323Z,6.20
2022-10-11T22:12:45.495Z,6.20
2022-10-11T22:15:12.428Z,6.20
2022-10-11T22:17:39.420Z,6.10
2022-10-11T22:20:06.890Z,6.10
2022-10-11T22:22:34.055Z,6.10
2022-10-11T22:25:01.185Z,6.10
2022-10-11T22:27:28.126Z,6.10
2022-10-11T22:29:55.091Z,6.10
2022-10-11T22:32:21.943Z,6.10
2022-10-11T22:34:48.795Z,6.00
2022-10-11T22:37:15.732Z,6.00
2022-10-11T22:39:42.568Z,6.00
2022-10-11T22:42:09.417Z,6.00
2022-10-11T22:44:36.373Z,6.00
2022-10-11T22:47:03.339Z,6.00
2022-10-11T22:49:30.171Z,6.00
2022-10-11T22:51:57.107Z,6.00
2022-10-11T22:54:24.199Z,6.00
2022-10-11T22:56:51.078Z,6.00
2022-10-11T22:59:17.990Z,6.00
2022-10-11T23:01:44.925Z,6.00
2022-10-11T23:04:11.767Z,5.90
2022-10-11T23:06:38.641Z,5.90
2022-10-11T23:09:05.614Z,5.80
2022-10-11T23:11:32.444Z,5.80
2022-10-11T23:13:59.312Z,5.80
2022-10-11T23:16:26.159Z,5.90
2022-10-11T23:18:53.565Z,5.80
2022-10-11T23:21:20.453Z,5.80
2022-10-11T23:23:47.383Z,5.80
2022-10-11T23:26:15.921Z,5.80
2022-10-11T23:28:43.155Z,5.80
2022-10-11T23:31:11.991Z,5.80
2022-10-11T23:33:38.997Z,5.80
2022-10-11T23:36:06.387Z,5.70
2022-10-11T23:38:33.331Z,5.70
2022-10-11T23:41:00.175Z,5.70
2022-10-11T23:43:27.024Z,5.70
2022-10-11T23:45:55.908Z,5.60
2022-10-11T23:48:23.203Z,5.60
2022-10-11T23:50:50.296Z,5.60
2022-10-11T23:53:17.275Z,5.60
2022-10-11T23:55:44.155Z,5.60
2022-10-11T23:58:10.996Z,5.60
